createdAt,value
2018-04-13T00:00:32.693Z,8.03
2018-04-13T00:02:59.516Z,7.93
2018-04-13T00:05:26.350Z,8.47
2018-04-13T00:07:54.256Z,8.83
2018-04-13T00:10:20.990Z,8.30
2018-04-13T00:12:47.798Z,8.57
2018-04-13T00:15:14.648Z,8.47
2018-04-13T00:17:42.406Z,8.00
2018-04-13T00:20:10.195Z,8.50
2018-04-13T00:22:37.033Z,8.63
2018-04-13T00:25:03.857Z,7.73
2018-04-13T00:27:32.571Z,8.07
2018-04-13T00:30:02.465Z,8.67
2018-04-13T00:32:30.237Z,8.33
2018-04-13T00:34:57.118Z,8.33
2018-04-13T00:37:23.947Z,8.37
2018-04-13T00:39:50.769Z,8.60
2018-04-13T00:42:17.618Z,8.07
2018-04-13T00:44:48.143Z,8.00
2018-04-13T00:47:18.714Z,8.17
2018-04-13T00:49:45.573Z,8.43
2018-04-13T00:52:12.361Z,8.27
2018-04-13T00:54:41.047Z,8.43
2018-04-13T00:57:09.743Z,8.20
2018-04-13T00:59:37.512Z,7.80
2018-04-13T01:02:04.349Z,8.17
2018-04-13T01:04:31.225Z,7.83
2018-04-13T01:06:58.023Z,8.13
2018-04-13T01:09:24.884Z,8.13
2018-04-13T01:11:54.809Z,8.30
2018-04-13T01:14:21.637Z,8.30
2018-04-13T01:16:48.482Z,8.27
2018-04-13T01:19:21.145Z,8.77
2018-04-13T01:21:49.861Z,8.27
2018-04-13T01:24:18.549Z,8.50
2018-04-13T01:26:47.213Z,8.30
2018-04-13T01:29:14.980Z,7.90
2018-04-13T01:31:41.856Z,8.43
2018-04-13T01:34:09.632Z,7.97
2018-04-13T01:36:36.450Z,9.00
2018-04-13T01:39:04.198Z,8.17
2018-04-13T01:41:32.921Z,8.70
2018-04-13T01:44:00.662Z,7.90
2018-04-13T01:46:27.516Z,8.33
2018-04-13T01:48:56.190Z,8.50
2018-04-13T01:51:23.974Z,7.87
2018-04-13T01:53:50.822Z,8.03
2018-04-13T01:56:19.488Z,8.10
2018-04-13T01:58:47.240Z,8.73
2018-04-13T02:01:14.102Z,7.90
2018-04-13T02:03:41.853Z,8.23
2018-04-13T02:06:08.714Z,8.50
2018-04-13T02:08:35.664Z,8.37
2018-04-13T02:11:02.391Z,7.97
2018-04-13T02:13:29.256Z,8.53
2018-04-13T02:15:56.094Z,8.87
2018-04-13T02:18:24.752Z,8.57
2018-04-13T02:20:55.017Z,8.13
2018-04-13T02:23:22.759Z,9.13
2018-04-13T02:25:50.534Z,8.43
2018-04-13T02:28:24.428Z,8.13
2018-04-13T02:30:54.344Z,8.77
2018-04-13T02:33:21.178Z,9.03
2018-04-13T02:35:48.044Z,8.17
2018-04-13T02:38:18.258Z,9.07
2018-04-13T02:40:45.090Z,8.43
2018-04-13T02:43:12.870Z,8.80
2018-04-13T02:45:39.731Z,8.90
2018-04-13T02:48:06.547Z,9.33
2018-04-13T02:50:33.392Z,9.70
2018-04-13T02:53:00.250Z,8.67
2018-04-13T02:55:28.010Z,8.60
2018-04-13T02:57:58.219Z,8.77
2018-04-13T03:00:25.094Z,9.17
2018-04-13T03:02:51.904Z,8.90
2018-04-13T03:05:18.767Z,8.43
2018-04-13T03:07:45.633Z,8.87
2018-04-13T03:10:13.379Z,8.60
2018-04-13T03:12:40.262Z,8.33
2018-04-13T03:15:07.056Z,8.63
2018-04-13T03:17:33.902Z,8.83
2018-04-13T03:20:01.696Z,8.83
2018-04-13T03:22:28.519Z,8.83
2018-04-13T03:24:55.354Z,8.57
2018-04-13T03:27:22.227Z,9.13
2018-04-13T03:29:49.030Z,8.60
2018-04-13T03:32:19.576Z,8.53
2018-04-13T03:34:47.347Z,8.60
2018-04-13T03:37:14.172Z,9.17
2018-04-13T03:39:41.013Z,7.97
2018-04-13T03:42:11.263Z,9.17
2018-04-13T03:44:38.102Z,8.67
2018-04-13T03:47:05.878Z,8.50
2018-04-13T03:49:32.708Z,8.47
2018-04-13T03:52:04.138Z,8.03
2018-04-13T03:54:31.063Z,8.40
2018-04-13T03:56:57.859Z,7.93
2018-04-13T03:59:24.684Z,8.70
2018-04-13T04:01:51.559Z,7.80
2018-04-13T04:04:18.368Z,8.30
2018-04-13T04:06:45.209Z,8.80
2018-04-13T04:09:12.109Z,8.70
2018-04-13T04:11:38.884Z,7.93
2018-04-13T04:14:05.737Z,8.00
2018-04-13T04:16:36.293Z,7.80
2018-04-13T04:19:10.476Z,8.57
2018-04-13T04:21:45.024Z,7.47
2018-04-13T04:24:18.684Z,8.47
2018-04-13T04:26:48.288Z,7.90
2018-04-13T04:29:15.073Z,8.43
2018-04-13T04:31:41.924Z,7.77
2018-04-13T04:34:08.755Z,8.03
2018-04-13T04:36:37.452Z,8.13
2018-04-13T04:39:05.199Z,8.00
2018-04-13T04:41:40.369Z,7.80
2018-04-13T04:44:07.196Z,7.63
2018-04-13T04:46:34.043Z,8.03
2018-04-13T04:49:02.729Z,7.97
2018-04-13T04:51:35.096Z,7.77
2018-04-13T04:54:01.970Z,8.23
2018-04-13T04:56:28.783Z,8.00
2018-04-13T04:58:56.551Z,7.60
2018-04-13T05:01:25.269Z,7.67
2018-04-13T05:03:52.089Z,7.50
2018-04-13T05:06:18.925Z,7.80
2018-04-13T05:08:46.717Z,8.10
2018-04-13T05:11:14.460Z,8.27
2018-04-13T05:13:41.304Z,8.00
2018-04-13T05:16:20.610Z,7.60
2018-04-13T05:18:48.783Z,7.93
2018-04-13T05:21:17.531Z,7.50
2018-04-13T05:23:44.346Z,8.03
2018-04-13T05:26:11.197Z,9.07
2018-04-13T05:28:38.335Z,8.13
2018-04-13T05:31:05.170Z,7.97
2018-04-13T05:33:32.017Z,7.77
2018-04-13T05:35:59.804Z,7.63
2018-04-13T05:38:26.625Z,7.70
2018-04-13T05:40:54.390Z,7.60
2018-04-13T05:43:21.279Z,8.67
2018-04-13T05:45:48.083Z,7.97
2018-04-13T05:55:05.645Z,18.53
2018-04-13T05:57:33.492Z,17.93
2018-04-13T06:00:04.273Z,19.03
2018-04-13T06:02:35.134Z,19.03
2018-04-13T06:05:08.092Z,21.17
2018-04-13T06:07:53.261Z,23.33
2018-04-13T06:10:40.710Z,22.23
2018-04-13T06:13:20.732Z,22.90
2018-04-13T06:15:57.564Z,24.77
2018-04-13T06:18:24.422Z,24.90
2018-04-13T06:21:03.489Z,24.57
2018-04-13T06:23:48.983Z,23.40
2018-04-13T06:26:17.784Z,23.37
2018-04-13T06:28:46.516Z,24.03
2018-04-13T06:31:13.341Z,22.83
2018-04-13T06:33:41.994Z,22.97
2018-04-13T06:36:14.098Z,23.83
2018-04-13T06:38:43.981Z,22.27
2018-04-13T06:41:11.745Z,24.00
2018-04-13T06:43:38.658Z,23.97
2018-04-13T06:46:05.471Z,22.47
2018-04-13T06:48:33.193Z,23.83
2018-04-13T06:51:00.069Z,24.37
2018-04-13T06:53:26.877Z,26.07
2018-04-13T06:55:53.708Z,23.77
2018-04-13T06:58:23.979Z,25.10
2018-04-13T07:00:59.062Z,25.43
2018-04-13T07:03:25.927Z,24.83
2018-04-13T07:05:52.809Z,25.37
2018-04-13T07:08:19.644Z,26.33
2018-04-13T07:10:46.457Z,26.67
2018-04-13T07:13:13.309Z,26.00
2018-04-13T07:15:49.966Z,28.00
2018-04-13T07:18:22.697Z,28.17
2018-04-13T07:23:36.552Z,28.30
2018-04-13T07:47:19.044Z,24.33
2018-04-13T07:49:46.736Z,24.63
2018-04-13T07:52:14.530Z,23.47
2018-04-13T07:54:41.363Z,22.30
2018-04-13T07:57:09.119Z,23.90
2018-04-13T07:59:45.137Z,21.60
2018-04-13T08:02:16.323Z,20.97
2018-04-13T08:04:44.109Z,20.60
2018-04-13T08:07:17.368Z,20.27
2018-04-13T08:09:46.093Z,20.17
2018-04-13T08:12:14.774Z,20.00
2018-04-13T08:14:45.925Z,20.73
2018-04-13T08:17:12.773Z,21.40
2018-04-13T08:19:54.529Z,21.37
2018-04-13T08:22:22.107Z,20.67
2018-04-13T08:24:54.491Z,21.07
2018-04-13T08:27:25.928Z,19.47
2018-04-13T08:29:52.824Z,20.13
2018-04-13T08:32:24.263Z,17.70
2018-04-13T08:34:59.708Z,17.60
2018-04-13T08:37:38.195Z,18.87
2018-04-13T08:40:05.956Z,17.83
2018-04-13T08:42:36.489Z,18.10
2018-04-13T08:45:22.244Z,18.43
2018-04-13T08:47:48.919Z,17.20
2018-04-13T08:50:17.610Z,15.80
2018-04-13T08:52:45.369Z,16.17
2018-04-13T08:55:15.287Z,16.93
2018-04-13T08:57:43.078Z,15.63
2018-04-13T09:00:09.895Z,15.80
2018-04-13T09:02:37.672Z,14.83
2018-04-13T09:05:04.503Z,15.37
2018-04-13T09:07:32.281Z,14.27
2018-04-13T09:10:00.107Z,14.23
2018-04-13T09:12:30.242Z,14.83
2018-04-13T09:14:57.110Z,14.10
2018-04-13T09:17:35.305Z,14.03
2018-04-13T09:20:07.994Z,14.30
2018-04-13T09:22:40.354Z,14.73
2018-04-13T09:25:11.066Z,14.53
2018-04-13T09:27:50.322Z,14.47
2018-04-13T09:30:29.431Z,15.83
2018-04-13T09:33:02.444Z,14.97
2018-04-13T09:35:29.326Z,13.93
2018-04-13T09:40:55.818Z,14.20
2018-04-13T09:43:26.082Z,13.90
2018-04-13T09:46:04.286Z,14.93
2018-04-13T09:48:36.065Z,14.60
2018-04-13T09:51:07.530Z,15.70
2018-04-13T09:53:52.678Z,14.87
2018-04-13T09:56:36.092Z,15.27
2018-04-13T09:59:04.922Z,16.40
2018-04-13T10:01:38.442Z,15.40
2018-04-13T10:04:13.632Z,15.97
2018-04-13T10:06:40.482Z,15.53
2018-04-13T10:09:08.245Z,16.70
2018-04-13T10:11:36.971Z,15.07
2018-04-13T10:14:07.161Z,15.23
2018-04-13T10:16:37.719Z,15.40
2018-04-13T10:19:12.183Z,16.43
2018-04-13T10:21:39.134Z,16.90
2018-04-13T10:26:52.729Z,15.93
2018-04-13T10:29:19.536Z,16.10
2018-04-13T10:31:51.047Z,16.10
2018-04-13T10:34:22.744Z,15.00
2018-04-13T10:36:50.569Z,15.00
2018-04-13T10:42:04.200Z,15.33
2018-04-13T10:44:49.351Z,16.33
2018-04-13T10:47:18.152Z,16.20
2018-04-13T10:49:49.916Z,15.37
2018-04-13T10:52:17.681Z,15.03
2018-04-13T10:54:51.580Z,14.10
2018-04-13T10:57:24.231Z,15.83
2018-04-13T10:59:58.774Z,14.90
2018-04-13T11:02:26.560Z,13.57
2018-04-13T11:04:54.335Z,13.57
2018-04-13T11:07:24.846Z,14.07
2018-04-13T11:09:53.540Z,13.87
2018-04-13T11:12:22.238Z,14.17
2018-04-13T11:14:49.983Z,13.97
2018-04-13T11:17:18.686Z,13.87
2018-04-13T11:19:51.352Z,14.43
2018-04-13T11:22:18.267Z,14.10
2018-04-13T11:24:53.635Z,14.47
2018-04-13T11:27:21.438Z,14.37
2018-04-13T11:29:53.278Z,14.57
2018-04-13T11:32:20.966Z,15.37
2018-04-13T11:34:49.374Z,14.93
2018-04-13T11:37:17.089Z,15.13
2018-04-13T11:39:47.025Z,15.57
2018-04-13T11:42:14.770Z,15.10
2018-04-13T11:44:42.523Z,15.17
2018-04-13T11:47:10.327Z,16.17
2018-04-13T11:49:37.142Z,15.77
2018-04-13T11:52:04.906Z,16.67
2018-04-13T11:54:31.774Z,15.97
2018-04-13T11:56:58.598Z,16.33
2018-04-13T11:59:25.435Z,17.10
2018-04-13T12:01:52.290Z,16.40
2018-04-13T12:04:19.115Z,17.83
2018-04-13T12:06:45.961Z,18.17
2018-04-13T12:09:14.684Z,18.33
2018-04-13T12:11:53.166Z,18.27
2018-04-13T12:14:20.013Z,18.13
2018-04-13T12:16:48.705Z,19.47
2018-04-13T12:19:21.055Z,18.20
2018-04-13T12:21:47.943Z,18.90
2018-04-13T12:24:14.749Z,19.63
2018-04-13T12:26:47.442Z,18.80
2018-04-13T12:29:21.665Z,19.37
2018-04-13T12:31:56.170Z,18.27
2018-04-13T12:34:34.700Z,20.50
2018-04-13T12:37:13.207Z,19.90
2018-04-13T12:39:49.949Z,20.87
2018-04-13T12:42:22.562Z,21.57
2018-04-13T12:45:00.175Z,21.73
2018-04-13T12:50:12.293Z,22.03
2018-04-13T12:52:51.614Z,21.70
2018-04-13T12:55:18.276Z,23.40
2018-04-13T12:57:45.119Z,24.90
2018-04-13T13:00:30.265Z,23.47
2018-04-13T13:03:09.698Z,23.87
2018-04-13T13:05:36.395Z,23.50
2018-04-13T13:08:05.061Z,23.93
2018-04-13T13:10:34.988Z,24.10
2018-04-13T13:13:02.740Z,24.90
2018-04-13T13:15:30.502Z,24.63
2018-04-13T13:17:58.266Z,26.73
2018-04-13T13:20:30.343Z,26.43
2018-04-13T13:22:58.097Z,23.37
2018-04-13T13:25:24.971Z,25.47
2018-04-13T13:27:53.623Z,22.67
2018-04-13T13:30:21.389Z,22.97
2018-04-13T13:32:49.189Z,22.90
2018-04-13T13:35:21.223Z,23.03
2018-04-13T13:40:37.018Z,23.30
2018-04-13T13:43:21.881Z,23.20
2018-04-13T13:45:50.701Z,24.17
2018-04-13T13:48:19.380Z,25.23
2018-04-13T13:50:58.778Z,23.27
2018-04-13T13:53:27.516Z,23.83
2018-04-13T13:55:55.274Z,24.40
2018-04-13T13:58:22.416Z,24.57
2018-04-13T14:00:49.293Z,24.00
2018-04-13T14:03:16.139Z,25.33
2018-04-13T14:05:42.965Z,25.20
2018-04-13T14:08:09.847Z,27.37
2018-04-13T14:10:36.647Z,23.33
2018-04-13T14:13:05.336Z,21.10
2018-04-13T14:15:39.235Z,22.10
2018-04-13T14:18:08.848Z,21.40
2018-04-13T14:20:38.459Z,22.67
2018-04-13T14:25:52.430Z,23.77
2018-04-13T14:31:15.258Z,21.50
2018-04-13T14:33:54.418Z,21.73
2018-04-13T14:36:22.226Z,21.30
2018-04-13T14:38:59.778Z,21.07
2018-04-13T14:44:18.694Z,21.60
2018-04-13T14:46:47.336Z,21.23
2018-04-13T14:49:14.231Z,21.67
2018-04-13T14:51:45.670Z,21.90
2018-04-13T14:54:12.482Z,19.63
2018-04-13T14:56:47.710Z,27.87
2018-04-13T14:59:15.377Z,21.90
2018-04-13T15:01:42.233Z,22.03
2018-04-13T15:04:13.076Z,23.77
2018-04-13T15:06:40.829Z,22.23
2018-04-13T15:09:08.677Z,22.67
2018-04-13T15:11:40.366Z,20.90
2018-04-13T15:14:08.416Z,20.97
2018-04-13T15:16:36.190Z,20.30
2018-04-13T15:19:04.012Z,19.73
2018-04-13T15:21:32.664Z,21.93
2018-04-13T15:24:05.099Z,20.83
2018-04-13T15:26:48.950Z,21.50
2018-04-13T15:29:30.528Z,21.77
2018-04-13T15:32:01.801Z,22.03
2018-04-13T15:34:33.284Z,22.57
2018-04-13T15:37:18.448Z,21.07
2018-04-13T15:39:45.120Z,21.40
2018-04-13T15:42:23.887Z,20.87
2018-04-13T15:45:05.064Z,21.33
2018-04-13T15:47:42.080Z,21.27
2018-04-13T15:50:09.954Z,22.20
2018-04-13T15:52:36.781Z,21.23
2018-04-13T15:55:05.488Z,20.70
2018-04-13T15:57:33.225Z,21.07
2018-04-13T16:00:00.988Z,21.57
2018-04-13T16:02:28.772Z,22.07
2018-04-13T16:04:57.496Z,21.37
2018-04-13T16:07:26.124Z,21.50
2018-04-13T16:10:00.346Z,21.40
2018-04-13T16:12:33.960Z,20.60
2018-04-13T16:15:02.653Z,21.33
2018-04-13T16:17:35.301Z,20.43
2018-04-13T16:20:02.326Z,18.93
2018-04-13T16:22:31.154Z,19.97
2018-04-13T16:24:57.995Z,19.53
2018-04-13T16:27:25.765Z,20.43
2018-04-13T16:29:53.551Z,20.10
2018-04-13T16:32:22.254Z,21.27
2018-04-13T16:35:06.461Z,22.90
2018-04-13T16:37:33.156Z,20.00
2018-04-13T16:39:59.937Z,22.27
2018-04-13T16:42:26.852Z,23.07
2018-04-13T16:44:53.662Z,20.10
2018-04-13T16:47:20.489Z,19.97
2018-04-13T16:49:47.333Z,19.90
2018-04-13T16:52:14.191Z,20.27
2018-04-13T16:54:41.019Z,20.23
2018-04-13T16:57:07.860Z,19.50
2018-04-13T16:59:34.729Z,19.70
2018-04-13T17:02:03.392Z,21.70
2018-04-13T17:04:33.941Z,20.23
2018-04-13T17:07:00.786Z,19.90
2018-04-13T17:09:29.458Z,21.23
2018-04-13T17:11:56.328Z,21.10
2018-04-13T17:14:23.140Z,22.33
2018-04-13T17:16:54.882Z,22.37
2018-04-13T17:19:25.470Z,21.43
2018-04-13T17:21:59.336Z,22.53
2018-04-13T17:24:29.258Z,22.43
2018-04-13T17:26:57.957Z,23.50
2018-04-13T17:29:42.165Z,24.27
2018-04-13T17:32:13.122Z,23.80
2018-04-13T17:34:40.963Z,26.77
2018-04-13T17:37:10.063Z,25.65
2018-04-13T17:39:42.894Z,32.10
2018-04-13T17:42:09.787Z,28.17
2018-04-13T17:44:41.263Z,26.63
2018-04-13T17:47:08.310Z,24.33
2018-04-13T17:49:42.521Z,25.50
2018-04-13T17:52:10.370Z,23.93
2018-04-13T17:54:40.833Z,24.63
2018-04-13T17:57:08.603Z,23.03
2018-04-13T17:59:36.373Z,23.27
2018-04-13T18:02:06.310Z,23.70
2018-04-13T18:04:34.078Z,23.57
2018-04-13T18:07:04.911Z,23.80
2018-04-13T18:09:31.747Z,23.50
2018-04-13T18:11:59.495Z,24.47
2018-04-13T18:14:38.611Z,24.63
2018-04-13T18:17:05.552Z,26.80
2018-04-13T18:19:32.453Z,27.33
2018-04-13T18:22:00.157Z,28.70
2018-04-13T18:24:26.967Z,27.17
2018-04-13T18:26:55.663Z,28.10
2018-04-13T18:29:26.461Z,33.20
2018-04-13T18:32:00.931Z,30.03
2018-04-13T18:34:29.663Z,29.87
2018-04-13T18:36:56.536Z,30.93
2018-04-13T18:39:24.298Z,29.97
2018-04-13T18:41:52.036Z,30.10
2018-04-13T18:44:20.744Z,30.97
2018-04-13T18:46:47.570Z,29.63
2018-04-13T18:49:14.438Z,29.20
2018-04-13T18:51:41.259Z,28.33
2018-04-13T18:54:08.132Z,27.33
2018-04-13T18:56:34.974Z,28.33
2018-04-13T18:59:03.620Z,28.20
2018-04-13T19:01:31.421Z,27.73
2018-04-13T19:04:05.309Z,25.87
2018-04-13T19:06:32.162Z,27.23
2018-04-13T19:09:08.838Z,25.47
2018-04-13T19:11:43.339Z,25.37
2018-04-13T19:14:11.193Z,25.13
2018-04-13T19:16:43.501Z,26.37
2018-04-13T19:19:13.419Z,27.87
2018-04-13T19:21:44.255Z,28.97
2018-04-13T19:24:18.467Z,29.57
2018-04-13T19:26:46.231Z,29.07
2018-04-13T19:29:14.997Z,28.57
2018-04-13T19:31:52.793Z,29.83
2018-04-13T19:34:22.869Z,34.73
2018-04-13T19:36:50.667Z,39.63
2018-04-13T19:39:17.339Z,40.80
2018-04-13T19:41:46.112Z,36.40
2018-04-13T19:44:12.893Z,42.33
2018-04-13T19:46:44.643Z,39.03
2018-04-13T19:49:11.485Z,37.23
2018-04-13T19:51:39.371Z,40.80
2018-04-13T19:54:07.010Z,36.30
2018-04-13T19:56:40.008Z,33.53
2018-04-13T19:59:11.137Z,37.50
2018-04-13T20:01:37.991Z,38.80
2018-04-13T20:04:04.858Z,33.53
2018-04-13T20:06:31.691Z,34.47
2018-04-13T20:08:58.605Z,35.83
2018-04-13T20:11:29.215Z,33.13
2018-04-13T20:13:58.123Z,32.90
2018-04-13T20:16:28.574Z,30.47
2018-04-13T20:19:02.223Z,31.33
2018-04-13T20:21:30.872Z,32.30
2018-04-13T20:24:03.534Z,34.23
2018-04-13T20:26:36.232Z,30.97
2018-04-13T20:29:03.106Z,34.60
2018-04-13T20:31:33.603Z,36.40
2018-04-13T20:34:15.726Z,34.63
2018-04-13T20:36:42.413Z,32.83
2018-04-13T20:39:10.207Z,30.13
2018-04-13T20:41:36.962Z,30.43
2018-04-13T20:44:03.824Z,32.07
2018-04-13T20:46:33.737Z,32.77
2018-04-13T20:49:04.833Z,32.03
2018-04-13T20:51:36.304Z,34.40
2018-04-13T20:54:03.169Z,33.03
2018-04-13T20:56:30.968Z,31.73
2018-04-13T20:59:03.490Z,29.27
2018-04-13T21:01:30.170Z,29.90
2018-04-13T21:03:57.926Z,29.97
2018-04-13T21:06:25.678Z,32.87
2018-04-13T21:08:53.442Z,33.30
2018-04-13T21:11:32.230Z,32.60
2018-04-13T21:14:00.356Z,32.33
2018-04-13T21:16:28.099Z,33.67
2018-04-13T21:18:56.235Z,34.17
2018-04-13T21:24:11.750Z,34.27
2018-04-13T21:26:38.778Z,32.63
2018-04-13T21:29:05.955Z,29.90
2018-04-13T21:31:32.825Z,30.17
2018-04-13T21:34:00.598Z,28.47
2018-04-13T21:36:34.171Z,27.83
2018-04-13T21:39:03.234Z,27.60
2018-04-13T21:41:30.025Z,30.00
2018-04-13T21:44:00.910Z,28.13
2018-04-13T21:46:27.747Z,26.20
2018-04-13T21:48:58.230Z,27.93
2018-04-13T21:51:32.038Z,26.27
2018-04-13T21:53:59.911Z,28.37
2018-04-13T21:56:27.673Z,26.47
2018-04-13T21:58:54.787Z,27.93
2018-04-13T22:01:23.509Z,32.60
2018-04-13T22:03:55.873Z,44.23
2018-04-13T22:06:22.719Z,42.50
2018-04-13T22:08:52.647Z,42.13
2018-04-13T22:11:20.367Z,35.87
2018-04-13T22:13:59.817Z,39.23
2018-04-13T22:16:36.498Z,42.53
2018-04-13T22:19:03.371Z,31.17
2018-04-13T22:21:30.232Z,30.90
2018-04-13T22:24:01.046Z,32.47
2018-04-13T22:26:33.456Z,31.43
2018-04-13T22:29:06.943Z,31.80
2018-04-13T22:31:39.697Z,29.27
2018-04-13T22:34:06.539Z,29.10
2018-04-13T22:36:33.378Z,28.37
2018-04-13T22:39:00.240Z,28.93
2018-04-13T22:41:27.080Z,29.03
2018-04-13T22:44:05.291Z,28.50
2018-04-13T22:46:36.432Z,27.73
2018-04-13T22:49:04.187Z,26.47
2018-04-13T22:51:31.965Z,27.10
2018-04-13T22:54:03.416Z,26.93
2018-04-13T22:56:31.179Z,24.47
2018-04-13T22:58:59.864Z,24.07
2018-04-13T23:01:34.909Z,23.93
2018-04-13T23:04:04.632Z,24.57
2018-04-13T23:06:32.373Z,25.73
2018-04-13T23:08:59.239Z,25.23
2018-04-13T23:11:26.077Z,26.10
2018-04-13T23:13:58.570Z,26.40
2018-04-13T23:16:26.213Z,27.03
2018-04-13T23:18:53.964Z,27.57
2018-04-13T23:21:33.601Z,26.40
2018-04-13T23:24:06.122Z,26.37
2018-04-13T23:26:38.769Z,26.90
2018-04-13T23:29:19.024Z,24.03
2018-04-13T23:31:53.859Z,25.60
2018-04-13T23:34:24.885Z,27.43
2018-04-13T23:36:51.673Z,25.03
2018-04-13T23:39:19.443Z,26.23
2018-04-13T23:41:54.525Z,25.97
2018-04-13T23:44:28.358Z,25.73
2018-04-13T23:46:57.142Z,24.30
2018-04-13T23:49:24.642Z,23.13
2018-04-13T23:51:55.138Z,22.70
2018-04-13T23:54:32.677Z,23.77
2018-04-13T23:56:59.340Z,23.97
2018-04-13T23:59:29.177Z,24.47
